sensor_id;sensor_type;location;lat;lon;timestamp;temperature;humidity
11617;DHT22;5864;52.998;9.068;2023-10-13T00:01:39;14.40;99.90
11617;DHT22;5864;52.998;9.068;2023-10-13T00:04:25;14.40;99.90
11617;DHT22;5864;52.998;9.068;2023-10-13T00:07:11;14.50;99.90
11617;DHT22;5864;52.998;9.068;2023-10-13T00:09:57;14.50;99.90
11617;DHT22;5864;52.998;9.068;2023-10-13T00:12:43;14.50;99.90
11617;DHT22;5864;52.998;9.068;2023-10-13T00:15:33;14.50;99.90
11617;DHT22;5864;52.998;9.068;2023-10-13T00:18:23;14.50;99.90
11617;DHT22;5864;52.998;9.068;2023-10-13T00:21:11;14.60;99.90
11617;DHT22;5864;52.998;9.068;2023-10-13T00:24:06;14.60;99.90
11617;DHT22;5864;52.998;9.068;2023-10-13T00:26:56;14.60;99.90
11617;DHT22;5864;52.998;9.068;2023-10-13T00:29:42;14.60;99.90
11617;DHT22;5864;52.998;9.068;2023-10-13T00:32:28;14.70;99.90
11617;DHT22;5864;52.998;9.068;2023-10-13T00:35:16;14.80;99.90
11617;DHT22;5864;52.998;9.068;2023-10-13T00:38:09;14.70;99.90
11617;DHT22;5864;52.998;9.068;2023-10-13T00:40:59;14.80;99.90
11617;DHT22;5864;52.998;9.068;2023-10-13T00:43:57;14.80;99.90
11617;DHT22;5864;52.998;9.068;2023-10-13T00:46:49;14.80;99.90
11617;DHT22;5864;52.998;9.068;2023-10-13T00:49:39;14.90;99.90
11617;DHT22;5864;52.998;9.068;2023-10-13T00:52:25;14.90;99.90
11617;DHT22;5864;52.998;9.068;2023-10-13T00:55:10;14.90;99.90
11617;DHT22;5864;52.998;9.068;2023-10-13T00:57:58;14.90;99.90
11617;DHT22;5864;52.998;9.068;2023-10-13T01:00:48;14.90;99.90
11617;DHT22;5864;52.998;9.068;2023-10-13T01:03:40;14.90;99.90
11617;DHT22;5864;52.998;9.068;2023-10-13T01:06:27;15.00;99.90
11617;DHT22;5864;52.998;9.068;2023-10-13T01:09:12;15.00;99.90
11617;DHT22;5864;52.998;9.068;2023-10-13T01:12:00;15.10;99.90
11617;DHT22;5864;52.998;9.068;2023-10-13T01:14:46;15.00;99.90
11617;DHT22;5864;52.998;9.068;2023-10-13T01:17:33;15.10;99.90
11617;DHT22;5864;52.998;9.068;2023-10-13T01:20:18;15.10;99.90
11617;DHT22;5864;52.998;9.068;2023-10-13T01:23:10;15.10;99.90
11617;DHT22;5864;52.998;9.068;2023-10-13T01:26:02;15.10;99.90
11617;DHT22;5864;52.998;9.068;2023-10-13T01:28:50;15.20;99.90
11617;DHT22;5864;52.998;9.068;2023-10-13T01:31:35;15.20;99.90
11617;DHT22;5864;52.998;9.068;2023-10-13T01:34:22;15.20;99.90
11617;DHT22;5864;52.998;9.068;2023-10-13T01:37:08;15.20;99.90
11617;DHT22;5864;52.998;9.068;2023-10-13T01:39:56;15.30;99.90
11617;DHT22;5864;52.998;9.068;2023-10-13T01:42:41;15.30;99.90
11617;DHT22;5864;52.998;9.068;2023-10-13T01:45:26;15.30;99.90
11617;DHT22;5864;52.998;9.068;2023-10-13T01:48:14;15.30;99.90
11617;DHT22;5864;52.998;9.068;2023-10-13T01:51:01;15.30;99.90
11617;DHT22;5864;52.998;9.068;2023-10-13T01:53:49;15.30;99.90
11617;DHT22;5864;52.998;9.068;2023-10-13T01:56:42;15.40;99.90
11617;DHT22;5864;52.998;9.068;2023-10-13T01:59:28;15.30;99.90
11617;DHT22;5864;52.998;9.068;2023-10-13T02:02:14;15.40;99.90
11617;DHT22;5864;52.998;9.068;2023-10-13T02:05:04;15.40;99.90
11617;DHT22;5864;52.998;9.068;2023-10-13T02:07:49;15.50;99.90
11617;DHT22;5864;52.998;9.068;2023-10-13T02:10:34;15.40;99.90
11617;DHT22;5864;52.998;9.068;2023-10-13T02:13:22;15.50;99.90
11617;DHT22;5864;52.998;9.068;2023-10-13T02:16:07;15.50;99.90
11617;DHT22;5864;52.998;9.068;2023-10-13T02:18:53;15.50;99.90
11617;DHT22;5864;52.998;9.068;2023-10-13T02:21:39;15.60;99.90
11617;DHT22;5864;52.998;9.068;2023-10-13T02:24:23;15.60;99.90
11617;DHT22;5864;52.998;9.068;2023-10-13T02:27:14;15.60;99.90
11617;DHT22;5864;52.998;9.068;2023-10-13T02:30:02;15.70;99.90
11617;DHT22;5864;52.998;9.068;2023-10-13T02:32:46;15.70;99.90
11617;DHT22;5864;52.998;9.068;2023-10-13T02:35:32;15.70;99.90
11617;DHT22;5864;52.998;9.068;2023-10-13T02:38:18;15.80;99.90
11617;DHT22;5864;52.998;9.068;2023-10-13T02:41:12;15.80;99.90
11617;DHT22;5864;52.998;9.068;2023-10-13T02:44:04;15.80;99.90
11617;DHT22;5864;52.998;9.068;2023-10-13T02:46:52;15.80;99.90
11617;DHT22;5864;52.998;9.068;2023-10-13T02:49:40;15.80;99.90
11617;DHT22;5864;52.998;9.068;2023-10-13T02:52:27;15.80;99.90
11617;DHT22;5864;52.998;9.068;2023-10-13T02:55:12;15.80;99.90
11617;DHT22;5864;52.998;9.068;2023-10-13T02:58:09;15.80;99.90
11617;DHT22;5864;52.998;9.068;2023-10-13T03:00:53;15.90;99.90
11617;DHT22;5864;52.998;9.068;2023-10-13T03:03:41;15.90;99.90
11617;DHT22;5864;52.998;9.068;2023-10-13T03:06:27;15.90;99.90
11617;DHT22;5864;52.998;9.068;2023-10-13T03:09:17;15.90;99.90
11617;DHT22;5864;52.998;9.068;2023-10-13T03:12:02;15.90;99.90
11617;DHT22;5864;52.998;9.068;2023-10-13T03:14:49;17.10;99.90
11617;DHT22;5864;52.998;9.068;2023-10-13T03:17:34;16.00;99.90
11617;DHT22;5864;52.998;9.068;2023-10-13T03:20:21;16.00;99.90
11617;DHT22;5864;52.998;9.068;2023-10-13T03:23:07;16.00;99.90
11617;DHT22;5864;52.998;9.068;2023-10-13T03:25:53;16.00;99.90
11617;DHT22;5864;52.998;9.068;2023-10-13T03:28:39;16.00;99.90
11617;DHT22;5864;52.998;9.068;2023-10-13T03:31:25;16.00;99.90
11617;DHT22;5864;52.998;9.068;2023-10-13T03:34:13;16.00;99.90
11617;DHT22;5864;52.998;9.068;2023-10-13T03:37:01;16.00;99.90
11617;DHT22;5864;52.998;9.068;2023-10-13T03:39:55;16.00;99.90
11617;DHT22;5864;52.998;9.068;2023-10-13T03:42:40;16.10;99.90
11617;DHT22;5864;52.998;9.068;2023-10-13T03:45:26;16.00;99.90
11617;DHT22;5864;52.998;9.068;2023-10-13T03:48:14;16.10;99.90
11617;DHT22;5864;52.998;9.068;2023-10-13T03:51:12;16.10;99.90
11617;DHT22;5864;52.998;9.068;2023-10-13T03:54:01;16.10;99.90
11617;DHT22;5864;52.998;9.068;2023-10-13T03:56:51;16.10;99.90
11617;DHT22;5864;52.998;9.068;2023-10-13T03:59:40;16.10;99.90
11617;DHT22;5864;52.998;9.068;2023-10-13T04:02:30;16.10;99.90
11617;DHT22;5864;52.998;9.068;2023-10-13T04:05:16;16.10;99.90
11617;DHT22;5864;52.998;9.068;2023-10-13T04:08:18;16.10;99.90
11617;DHT22;5864;52.998;9.068;2023-10-13T04:11:19;16.10;99.90
11617;DHT22;5864;52.998;9.068;2023-10-13T04:14:22;16.10;99.90
11617;DHT22;5864;52.998;9.068;2023-10-13T04:17:29;16.10;99.90
11617;DHT22;5864;52.998;9.068;2023-10-13T04:20:17;16.10;99.90
11617;DHT22;5864;52.998;9.068;2023-10-13T04:23:17;16.10;99.90
11617;DHT22;5864;52.998;9.068;2023-10-13T04:26:05;16.10;99.90
11617;DHT22;5864;52.998;9.068;2023-10-13T04:28:54;16.10;99.90
11617;DHT22;5864;52.998;9.068;2023-10-13T04:31:41;16.20;99.90
11617;DHT22;5864;52.998;9.068;2023-10-13T04:34:41;16.10;99.90
11617;DHT22;5864;52.998;9.068;2023-10-13T04:37:29;16.10;99.90
11617;DHT22;5864;52.998;9.068;2023-10-13T04:40:18;16.20;99.90
11617;DHT22;5864;52.998;9.068;2023-10-13T04:43:08;16.10;99.90
11617;DHT22;5864;52.998;9.068;2023-10-13T04:46:18;16.10;99.90
11617;DHT22;5864;52.998;9.068;2023-10-13T04:49:20;16.10;99.90
11617;DHT22;5864;52.998;9.068;2023-10-13T04:52:13;16.10;99.90
11617;DHT22;5864;52.998;9.068;2023-10-13T04:55:11;16.10;99.90
11617;DHT22;5864;52.998;9.068;2023-10-13T04:58:09;16.20;99.90
11617;DHT22;5864;52.998;9.068;2023-10-13T05:01:21;16.10;99.90
11617;DHT22;5864;52.998;9.068;2023-10-13T05:04:34;16.10;99.90
11617;DHT22;5864;52.998;9.068;2023-10-13T05:07:43;16.10;99.90
11617;DHT22;5864;52.998;9.068;2023-10-13T05:10:47;16.20;99.90
11617;DHT22;5864;52.998;9.068;2023-10-13T05:13:50;16.10;99.90
11617;DHT22;5864;52.998;9.068;2023-10-13T05:16:55;16.10;99.90
11617;DHT22;5864;52.998;9.068;2023-10-13T05:19:58;16.10;99.90
11617;DHT22;5864;52.998;9.068;2023-10-13T05:23:01;16.10;99.90
11617;DHT22;5864;52.998;9.068;2023-10-13T05:26:04;16.10;99.90
11617;DHT22;5864;52.998;9.068;2023-10-13T05:29:07;16.00;99.90
11617;DHT22;5864;52.998;9.068;2023-10-13T05:32:12;16.10;99.90
11617;DHT22;5864;52.998;9.068;2023-10-13T05:35:16;16.20;99.90
11617;DHT22;5864;52.998;9.068;2023-10-13T05:38:19;16.10;99.90
11617;DHT22;5864;52.998;9.068;2023-10-13T05:41:22;16.10;99.90
11617;DHT22;5864;52.998;9.068;2023-10-13T05:44:25;16.30;99.90
11617;DHT22;5864;52.998;9.068;2023-10-13T05:47:32;16.10;99.90
11617;DHT22;5864;52.998;9.068;2023-10-13T05:50:35;16.10;99.90
11617;DHT22;5864;52.998;9.068;2023-10-13T05:54:03;16.20;99.90
11617;DHT22;5864;52.998;9.068;2023-10-13T05:57:03;16.10;99.90
11617;DHT22;5864;52.998;9.068;2023-10-13T06:00:07;16.20;99.90
11617;DHT22;5864;52.998;9.068;2023-10-13T06:03:11;16.20;99.90
11617;DHT22;5864;52.998;9.068;2023-10-13T06:06:14;16.20;99.90
11617;DHT22;5864;52.998;9.068;2023-10-13T06:09:18;16.20;99.90
11617;DHT22;5864;52.998;9.068;2023-10-13T06:12:35;16.20;99.90
11617;DHT22;5864;52.998;9.068;2023-10-13T06:15:38;16.20;99.90
11617;DHT22;5864;52.998;9.068;2023-10-13T06:18:44;16.20;99.90
11617;DHT22;5864;52.998;9.068;2023-10-13T06:21:47;16.20;99.90
11617;DHT22;5864;52.998;9.068;2023-10-13T06:24:50;16.20;99.90
11617;DHT22;5864;52.998;9.068;2023-10-13T06:27:53;16.30;99.90
11617;DHT22;5864;52.998;9.068;2023-10-13T06:30:57;16.20;99.90
11617;DHT22;5864;52.998;9.068;2023-10-13T06:33:47;16.30;99.90
11617;DHT22;5864;52.998;9.068;2023-10-13T06:36:32;16.20;99.90
11617;DHT22;5864;52.998;9.068;2023-10-13T06:39:18;16.20;99.90
11617;DHT22;5864;52.998;9.068;2023-10-13T06:42:20;16.20;99.90
11617;DHT22;5864;52.998;9.068;2023-10-13T06:45:06;16.20;99.90
11617;DHT22;5864;52.998;9.068;2023-10-13T06:47:53;16.30;99.90
11617;DHT22;5864;52.998;9.068;2023-10-13T06:50:47;16.30;99.90
11617;DHT22;5864;52.998;9.068;2023-10-13T06:53:33;16.30;99.90
11617;DHT22;5864;52.998;9.068;2023-10-13T06:56:21;16.30;99.90
11617;DHT22;5864;52.998;9.068;2023-10-13T06:59:11;16.30;99.90
11617;DHT22;5864;52.998;9.068;2023-10-13T07:01:58;16.30;99.90
11617;DHT22;5864;52.998;9.068;2023-10-13T07:04:49;16.30;99.90
11617;DHT22;5864;52.998;9.068;2023-10-13T07:07:38;16.30;99.90
11617;DHT22;5864;52.998;9.068;2023-10-13T07:10:24;16.40;99.90
11617;DHT22;5864;52.998;9.068;2023-10-13T07:13:14;16.30;99.90
11617;DHT22;5864;52.998;9.068;2023-10-13T07:16:01;16.30;99.90
11617;DHT22;5864;52.998;9.068;2023-10-13T07:18:50;16.30;99.90
11617;DHT22;5864;52.998;9.068;2023-10-13T07:21:39;16.30;99.90
11617;DHT22;5864;52.998;9.068;2023-10-13T07:24:31;16.30;99.90
11617;DHT22;5864;52.998;9.068;2023-10-13T07:27:17;16.30;99.90
11617;DHT22;5864;52.998;9.068;2023-10-13T07:30:08;16.30;99.90
11617;DHT22;5864;52.998;9.068;2023-10-13T07:32:58;16.30;99.90
11617;DHT22;5864;52.998;9.068;2023-10-13T07:35:44;16.20;99.90
11617;DHT22;5864;52.998;9.068;2023-10-13T07:38:34;16.20;99.90
11617;DHT22;5864;52.998;9.068;2023-10-13T07:41:23;16.30;99.90
11617;DHT22;5864;52.998;9.068;2023-10-13T07:44:14;16.30;99.90
11617;DHT22;5864;52.998;9.068;2023-10-13T07:47:00;16.30;99.90
11617;DHT22;5864;52.998;9.068;2023-10-13T07:49:46;16.40;99.90
11617;DHT22;5864;52.998;9.068;2023-10-13T07:52:34;16.30;99.90
11617;DHT22;5864;52.998;9.068;2023-10-13T07:55:38;16.30;99.90
11617;DHT22;5864;52.998;9.068;2023-10-13T07:58:26;16.30;99.90
11617;DHT22;5864;52.998;9.068;2023-10-13T08:01:11;16.40;99.90
11617;DHT22;5864;52.998;9.068;2023-10-13T08:04:01;16.40;99.90
11617;DHT22;5864;52.998;9.068;2023-10-13T08:06:55;16.40;99.90
11617;DHT22;5864;52.998;9.068;2023-10-13T08:09:56;16.40;99.90
11617;DHT22;5864;52.998;9.068;2023-10-13T08:12:43;16.50;99.90
11617;DHT22;5864;52.998;9.068;2023-10-13T08:15:30;16.50;99.90
11617;DHT22;5864;52.998;9.068;2023-10-13T08:18:17;16.50;99.90
11617;DHT22;5864;52.998;9.068;2023-10-13T08:21:04;16.60;99.90
11617;DHT22;5864;52.998;9.068;2023-10-13T08:23:51;16.60;99.90
11617;DHT22;5864;52.998;9.068;2023-10-13T08:26:43;16.60;99.90
11617;DHT22;5864;52.998;9.068;2023-10-13T08:29:58;16.60;99.90
11617;DHT22;5864;52.998;9.068;2023-10-13T08:33:04;16.80;99.90
11617;DHT22;5864;52.998;9.068;2023-10-13T08:36:00;16.80;99.90
11617;DHT22;5864;52.998;9.068;2023-10-13T08:39:12;16.90;99.90
11617;DHT22;5864;52.998;9.068;2023-10-13T08:42:30;16.90;99.90
11617;DHT22;5864;52.998;9.068;2023-10-13T08:45:26;17.00;99.90
11617;DHT22;5864;52.998;9.068;2023-10-13T08:48:27;17.00;99.90
11617;DHT22;5864;52.998;9.068;2023-10-13T08:51:20;17.10;99.90
11617;DHT22;5864;52.998;9.068;2023-10-13T08:54:20;17.10;99.90
11617;DHT22;5864;52.998;9.068;2023-10-13T08:57:18;17.20;99.90
11617;DHT22;5864;52.998;9.068;2023-10-13T09:00:18;17.20;99.90
11617;DHT22;5864;52.998;9.068;2023-10-13T09:03:13;17.30;99.90
11617;DHT22;5864;52.998;9.068;2023-10-13T09:06:23;17.30;99.90
11617;DHT22;5864;52.998;9.068;2023-10-13T09:09:10;17.30;99.90
11617;DHT22;5864;52.998;9.068;2023-10-13T09:12:11;17.40;99.90
11617;DHT22;5864;52.998;9.068;2023-10-13T09:14:58;17.30;99.90
11617;DHT22;5864;52.998;9.068;2023-10-13T09:17:44;17.30;99.90
11617;DHT22;5864;52.998;9.068;2023-10-13T09:20:35;17.40;99.90
11617;DHT22;5864;52.998;9.068;2023-10-13T09:23:29;17.40;99.90
11617;DHT22;5864;52.998;9.068;2023-10-13T09:26:33;17.50;99.90
11617;DHT22;5864;52.998;9.068;2023-10-13T09:29:21;17.40;99.90
11617;DHT22;5864;52.998;9.068;2023-10-13T09:32:08;17.50;99.90
11617;DHT22;5864;52.998;9.068;2023-10-13T09:35:01;17.50;99.90
11617;DHT22;5864;52.998;9.068;2023-10-13T09:37:46;17.50;99.90
11617;DHT22;5864;52.998;9.068;2023-10-13T09:40:33;17.60;99.90
11617;DHT22;5864;52.998;9.068;2023-10-13T09:43:22;17.70;99.90
11617;DHT22;5864;52.998;9.068;2023-10-13T09:46:10;17.70;99.90
11617;DHT22;5864;52.998;9.068;2023-10-13T09:49:11;17.70;99.90
11617;DHT22;5864;52.998;9.068;2023-10-13T09:52:01;17.80;99.90
11617;DHT22;5864;52.998;9.068;2023-10-13T09:54:56;17.90;99.90
11617;DHT22;5864;52.998;9.068;2023-10-13T09:57:51;18.00;99.90
11617;DHT22;5864;52.998;9.068;2023-10-13T10:00:46;18.00;99.90
11617;DHT22;5864;52.998;9.068;2023-10-13T10:03:44;18.10;99.90
11617;DHT22;5864;52.998;9.068;2023-10-13T10:06:35;18.20;99.90
11617;DHT22;5864;52.998;9.068;2023-10-13T10:09:29;18.30;99.90
11617;DHT22;5864;52.998;9.068;2023-10-13T10:12:26;18.30;99.90
11617;DHT22;5864;52.998;9.068;2023-10-13T10:15:26;18.40;99.90
11617;DHT22;5864;52.998;9.068;2023-10-13T10:18:19;18.40;99.90
11617;DHT22;5864;52.998;9.068;2023-10-13T10:21:06;18.40;99.90
11617;DHT22;5864;52.998;9.068;2023-10-13T10:23:54;18.40;99.90
11617;DHT22;5864;52.998;9.068;2023-10-13T10:26:50;18.70;99.90
11617;DHT22;5864;52.998;9.068;2023-10-13T10:29:36;18.90;99.90
11617;DHT22;5864;52.998;9.068;2023-10-13T10:32:34;19.10;99.90
11617;DHT22;5864;52.998;9.068;2023-10-13T10:35:23;19.30;99.90
11617;DHT22;5864;52.998;9.068;2023-10-13T10:38:10;19.40;99.90
11617;DHT22;5864;52.998;9.068;2023-10-13T10:41:08;19.50;99.90
11617;DHT22;5864;52.998;9.068;2023-10-13T10:43:58;19.50;99.90
11617;DHT22;5864;52.998;9.068;2023-10-13T10:46:46;19.60;99.90
11617;DHT22;5864;52.998;9.068;2023-10-13T10:49:43;19.60;99.90
11617;DHT22;5864;52.998;9.068;2023-10-13T10:52:28;19.50;99.90
11617;DHT22;5864;52.998;9.068;2023-10-13T10:55:21;19.50;99.90
11617;DHT22;5864;52.998;9.068;2023-10-13T10:58:12;19.50;99.90
11617;DHT22;5864;52.998;9.068;2023-10-13T11:01:12;19.50;99.90
11617;DHT22;5864;52.998;9.068;2023-10-13T11:04:05;19.60;99.90
11617;DHT22;5864;52.998;9.068;2023-10-13T11:07:00;19.70;99.90
11617;DHT22;5864;52.998;9.068;2023-10-13T11:09:45;19.80;99.90
11617;DHT22;5864;52.998;9.068;2023-10-13T11:12:31;19.80;99.90
11617;DHT22;5864;52.998;9.068;2023-10-13T11:15:19;19.70;99.90
11617;DHT22;5864;52.998;9.068;2023-10-13T11:18:07;19.70;99.90
11617;DHT22;5864;52.998;9.068;2023-10-13T11:20:58;19.80;99.90
11617;DHT22;5864;52.998;9.068;2023-10-13T11:23:55;19.90;99.90
11617;DHT22;5864;52.998;9.068;2023-10-13T11:26:41;19.80;99.90
11617;DHT22;5864;52.998;9.068;2023-10-13T11:29:33;20.10;99.90
11617;DHT22;5864;52.998;9.068;2023-10-13T11:32:19;20.30;99.90
11617;DHT22;5864;52.998;9.068;2023-10-13T11:35:07;20.40;99.90
11617;DHT22;5864;52.998;9.068;2023-10-13T11:37:55;20.40;99.90
11617;DHT22;5864;52.998;9.068;2023-10-13T11:40:58;20.40;99.90
11617;DHT22;5864;52.998;9.068;2023-10-13T11:43:56;20.50;99.90
11617;DHT22;5864;52.998;9.068;2023-10-13T11:46:57;20.60;99.90
11617;DHT22;5864;52.998;9.068;2023-10-13T11:50:00;20.60;99.90
11617;DHT22;5864;52.998;9.068;2023-10-13T11:52:49;20.70;99.90
11617;DHT22;5864;52.998;9.068;2023-10-13T11:55:33;20.70;99.90
11617;DHT22;5864;52.998;9.068;2023-10-13T11:58:21;20.70;99.90
11617;DHT22;5864;52.998;9.068;2023-10-13T12:01:07;20.70;99.90
11617;DHT22;5864;52.998;9.068;2023-10-13T12:04:05;20.70;99.90
11617;DHT22;5864;52.998;9.068;2023-10-13T12:07:08;20.70;99.90
11617;DHT22;5864;52.998;9.068;2023-10-13T12:10:01;20.60;99.90
11617;DHT22;5864;52.998;9.068;2023-10-13T12:12:50;20.60;99.90
11617;DHT22;5864;52.998;9.068;2023-10-13T12:15:40;20.60;99.90
11617;DHT22;5864;52.998;9.068;2023-10-13T12:18:36;20.70;99.90
11617;DHT22;5864;52.998;9.068;2023-10-13T12:21:22;20.60;99.90
11617;DHT22;5864;52.998;9.068;2023-10-13T12:24:08;20.60;99.90
11617;DHT22;5864;52.998;9.068;2023-10-13T12:27:06;20.50;99.90
11617;DHT22;5864;52.998;9.068;2023-10-13T12:30:03;20.40;99.90
11617;DHT22;5864;52.998;9.068;2023-10-13T12:32:53;20.50;99.90
11617;DHT22;5864;52.998;9.068;2023-10-13T12:35:55;20.50;99.90
11617;DHT22;5864;52.998;9.068;2023-10-13T12:38:47;20.50;99.90
11617;DHT22;5864;52.998;9.068;2023-10-13T12:41:56;20.40;99.90
11617;DHT22;5864;52.998;9.068;2023-10-13T12:44:59;20.40;99.90
11617;DHT22;5864;52.998;9.068;2023-10-13T12:48:04;20.50;99.90
11617;DHT22;5864;52.998;9.068;2023-10-13T12:51:07;20.50;99.90
11617;DHT22;5864;52.998;9.068;2023-10-13T12:54:04;20.60;99.90
11617;DHT22;5864;52.998;9.068;2023-10-13T12:56:51;20.70;99.90
11617;DHT22;5864;52.998;9.068;2023-10-13T12:59:41;20.70;99.90
11617;DHT22;5864;52.998;9.068;2023-10-13T13:02:27;20.80;99.90
11617;DHT22;5864;52.998;9.068;2023-10-13T13:05:15;20.80;99.90
11617;DHT22;5864;52.998;9.068;2023-10-13T13:08:00;20.70;99.90
11617;DHT22;5864;52.998;9.068;2023-10-13T13:10:47;20.60;99.90
11617;DHT22;5864;52.998;9.068;2023-10-13T13:13:32;20.80;99.90
11617;DHT22;5864;52.998;9.068;2023-10-13T13:16:18;20.80;99.90
11617;DHT22;5864;52.998;9.068;2023-10-13T13:19:07;21.10;99.90
11617;DHT22;5864;52.998;9.068;2023-10-13T13:21:59;21.10;99.90
11617;DHT22;5864;52.998;9.068;2023-10-13T13:24:46;21.20;99.90
11617;DHT22;5864;52.998;9.068;2023-10-13T13:27:31;21.20;99.90
11617;DHT22;5864;52.998;9.068;2023-10-13T13:30:18;21.20;99.90
11617;DHT22;5864;52.998;9.068;2023-10-13T13:33:05;21.10;99.90
11617;DHT22;5864;52.998;9.068;2023-10-13T13:35:55;21.10;99.90
11617;DHT22;5864;52.998;9.068;2023-10-13T13:38:46;21.10;99.90
11617;DHT22;5864;52.998;9.068;2023-10-13T13:41:33;21.10;99.90
11617;DHT22;5864;52.998;9.068;2023-10-13T13:44:19;21.00;99.90
11617;DHT22;5864;52.998;9.068;2023-10-13T13:47:04;21.10;99.80
11617;DHT22;5864;52.998;9.068;2023-10-13T13:49:56;21.30;97.80
11617;DHT22;5864;52.998;9.068;2023-10-13T13:52:41;21.40;96.20
11617;DHT22;5864;52.998;9.068;2023-10-13T13:55:33;21.40;98.30
11617;DHT22;5864;52.998;9.068;2023-10-13T13:58:19;21.60;83.40
11617;DHT22;5864;52.998;9.068;2023-10-13T14:01:05;22.00;54.30
11617;DHT22;5864;52.998;9.068;2023-10-13T14:03:56;22.10;56.20
11617;DHT22;5864;52.998;9.068;2023-10-13T14:06:46;22.20;32.10
11617;DHT22;5864;52.998;9.068;2023-10-13T14:09:32;22.40;1.00
11617;DHT22;5864;52.998;9.068;2023-10-13T14:12:26;22.50;1.00
11617;DHT22;5864;52.998;9.068;2023-10-13T14:15:13;22.60;1.00
11617;DHT22;5864;52.998;9.068;2023-10-13T14:18:08;22.60;1.00
11617;DHT22;5864;52.998;9.068;2023-10-13T14:20:58;22.50;1.00
11617;DHT22;5864;52.998;9.068;2023-10-13T14:23:49;22.40;1.00
11617;DHT22;5864;52.998;9.068;2023-10-13T14:26:35;22.20;1.00
11617;DHT22;5864;52.998;9.068;2023-10-13T14:29:23;22.20;1.00
11617;DHT22;5864;52.998;9.068;2023-10-13T14:32:11;22.40;1.00
11617;DHT22;5864;52.998;9.068;2023-10-13T14:34:58;22.40;1.00
11617;DHT22;5864;52.998;9.068;2023-10-13T14:37:44;22.40;1.00
11617;DHT22;5864;52.998;9.068;2023-10-13T14:40:30;22.30;1.00
11617;DHT22;5864;52.998;9.068;2023-10-13T14:43:15;22.20;1.00
11617;DHT22;5864;52.998;9.068;2023-10-13T14:46:02;22.10;1.00
11617;DHT22;5864;52.998;9.068;2023-10-13T14:48:54;22.10;1.00
11617;DHT22;5864;52.998;9.068;2023-10-13T14:51:39;22.10;1.00
11617;DHT22;5864;52.998;9.068;2023-10-13T14:54:25;22.00;1.00
11617;DHT22;5864;52.998;9.068;2023-10-13T14:57:17;22.00;1.40
11617;DHT22;5864;52.998;9.068;2023-10-13T15:00:10;21.90;6.20
11617;DHT22;5864;52.998;9.068;2023-10-13T15:02:59;21.60;11.80
11617;DHT22;5864;52.998;9.068;2023-10-13T15:05:45;21.80;14.40
11617;DHT22;5864;52.998;9.068;2023-10-13T15:08:31;21.80;9.50
11617;DHT22;5864;52.998;9.068;2023-10-13T15:11:17;21.80;1.00
11617;DHT22;5864;52.998;9.068;2023-10-13T15:14:04;21.80;5.90
11617;DHT22;5864;52.998;9.068;2023-10-13T15:16:51;21.70;14.10
11617;DHT22;5864;52.998;9.068;2023-10-13T15:19:38;21.70;4.90
11617;DHT22;5864;52.998;9.068;2023-10-13T15:22:26;21.70;5.30
11617;DHT22;5864;52.998;9.068;2023-10-13T15:25:12;21.70;5.50
11617;DHT22;5864;52.998;9.068;2023-10-13T15:28:12;21.70;11.10
11617;DHT22;5864;52.998;9.068;2023-10-13T15:30:58;21.60;18.30
11617;DHT22;5864;52.998;9.068;2023-10-13T15:33:55;21.50;21.10
11617;DHT22;5864;52.998;9.068;2023-10-13T15:36:44;21.50;22.20
11617;DHT22;5864;52.998;9.068;2023-10-13T15:39:29;21.40;30.40
11617;DHT22;5864;52.998;9.068;2023-10-13T15:42:16;21.30;36.20
11617;DHT22;5864;52.998;9.068;2023-10-13T15:45:05;21.20;42.40
11617;DHT22;5864;52.998;9.068;2023-10-13T15:48:00;21.10;38.80
11617;DHT22;5864;52.998;9.068;2023-10-13T15:50:48;21.10;48.70
11617;DHT22;5864;52.998;9.068;2023-10-13T15:53:35;20.90;41.90
11617;DHT22;5864;52.998;9.068;2023-10-13T15:56:20;21.00;55.10
11617;DHT22;5864;52.998;9.068;2023-10-13T15:59:06;20.80;53.00
11617;DHT22;5864;52.998;9.068;2023-10-13T16:01:52;20.90;46.00
11617;DHT22;5864;52.998;9.068;2023-10-13T16:04:41;20.90;43.30
11617;DHT22;5864;52.998;9.068;2023-10-13T16:07:28;20.90;49.10
11617;DHT22;5864;52.998;9.068;2023-10-13T16:10:15;20.90;28.20
11617;DHT22;5864;52.998;9.068;2023-10-13T16:13:02;21.00;34.20
11617;DHT22;5864;52.998;9.068;2023-10-13T16:15:50;21.00;31.80
11617;DHT22;5864;52.998;9.068;2023-10-13T16:18:36;20.90;33.10
11617;DHT22;5864;52.998;9.068;2023-10-13T16:21:21;21.00;30.50
11617;DHT22;5864;52.998;9.068;2023-10-13T16:24:08;21.00;24.50
11617;DHT22;5864;52.998;9.068;2023-10-13T16:26:56;21.00;28.40
11617;DHT22;5864;52.998;9.068;2023-10-13T16:29:43;21.00;34.00
11617;DHT22;5864;52.998;9.068;2023-10-13T16:32:28;20.90;34.60
11617;DHT22;5864;52.998;9.068;2023-10-13T16:35:14;20.80;44.00
11617;DHT22;5864;52.998;9.068;2023-10-13T16:38:01;20.70;48.10
11617;DHT22;5864;52.998;9.068;2023-10-13T16:40:51;20.70;61.40
11617;DHT22;5864;52.998;9.068;2023-10-13T16:43:39;20.60;58.00
11617;DHT22;5864;52.998;9.068;2023-10-13T16:46:26;20.50;66.10
11617;DHT22;5864;52.998;9.068;2023-10-13T16:49:11;20.40;60.10
11617;DHT22;5864;52.998;9.068;2023-10-13T16:51:58;20.40;71.80
11617;DHT22;5864;52.998;9.068;2023-10-13T16:54:44;20.40;72.40
11617;DHT22;5864;52.998;9.068;2023-10-13T16:57:30;20.40;69.60
11617;DHT22;5864;52.998;9.068;2023-10-13T17:00:18;20.30;92.20
11617;DHT22;5864;52.998;9.068;2023-10-13T17:03:09;20.20;99.90
11617;DHT22;5864;52.998;9.068;2023-10-13T17:05:57;20.20;99.90
11617;DHT22;5864;52.998;9.068;2023-10-13T17:08:45;20.20;99.90
11617;DHT22;5864;52.998;9.068;2023-10-13T17:11:31;20.00;99.90
11617;DHT22;5864;52.998;9.068;2023-10-13T17:14:17;20.00;99.90
11617;DHT22;5864;52.998;9.068;2023-10-13T17:17:05;20.00;99.90
11617;DHT22;5864;52.998;9.068;2023-10-13T17:19:50;20.00;99.90
11617;DHT22;5864;52.998;9.068;2023-10-13T17:22:37;19.90;99.90
11617;DHT22;5864;52.998;9.068;2023-10-13T17:25:23;19.80;99.90
11617;DHT22;5864;52.998;9.068;2023-10-13T17:28:10;19.70;99.90
11617;DHT22;5864;52.998;9.068;2023-10-13T17:30:58;19.60;99.90
11617;DHT22;5864;52.998;9.068;2023-10-13T17:33:46;19.50;99.90
11617;DHT22;5864;52.998;9.068;2023-10-13T17:36:33;19.40;99.90
11617;DHT22;5864;52.998;9.068;2023-10-13T17:39:19;19.30;99.90
11617;DHT22;5864;52.998;9.068;2023-10-13T17:42:04;19.10;99.90
11617;DHT22;5864;52.998;9.068;2023-10-13T17:44:50;19.00;99.90
11617;DHT22;5864;52.998;9.068;2023-10-13T17:47:36;18.90;99.90
11617;DHT22;5864;52.998;9.068;2023-10-13T17:50:24;18.70;99.90
11617;DHT22;5864;52.998;9.068;2023-10-13T17:53:09;18.70;99.90
11617;DHT22;5864;52.998;9.068;2023-10-13T17:55:55;18.60;99.90
11617;DHT22;5864;52.998;9.068;2023-10-13T17:58:44;18.50;99.90
11617;DHT22;5864;52.998;9.068;2023-10-13T18:01:31;18.40;99.90
11617;DHT22;5864;52.998;9.068;2023-10-13T18:04:16;18.30;99.90
11617;DHT22;5864;52.998;9.068;2023-10-13T18:07:04;18.30;99.90
11617;DHT22;5864;52.998;9.068;2023-10-13T18:09:50;18.30;99.90
11617;DHT22;5864;52.998;9.068;2023-10-13T18:12:37;18.30;99.90
11617;DHT22;5864;52.998;9.068;2023-10-13T18:15:22;18.40;99.90
11617;DHT22;5864;52.998;9.068;2023-10-13T18:18:08;18.40;99.90
11617;DHT22;5864;52.998;9.068;2023-10-13T18:21:01;18.40;99.90